createdAt,value
2022-08-14T00:00:13.042Z,14.23
2022-08-14T00:00:34.992Z,14.82
2022-08-14T00:01:00.774Z,14.38
2022-08-14T00:01:33.563Z,14.35
2022-08-14T00:02:09.384Z,13.75
2022-08-14T00:02:31.696Z,13.77
2022-08-14T00:02:53.771Z,14.98
2022-08-14T00:03:34.081Z,14.40
2022-08-14T00:04:34.370Z,13.07
2022-08-14T00:04:47.996Z,13.40
2022-08-14T00:05:12.663Z,13.65
2022-08-14T00:05:35.204Z,13.35
2022-08-14T00:06:00.541Z,13.98
2022-08-14T00:06:28.735Z,14.63
2022-08-14T00:06:51.687Z,14.75
2022-08-14T00:07:14.698Z,14.07
2022-08-14T00:07:42.009Z,14.60
2022-08-14T00:08:04.692Z,14.70
2022-08-14T00:08:43.647Z,13.73
2022-08-14T00:09:07.388Z,14.07
2022-08-14T00:09:29.350Z,13.83
2022-08-14T00:09:56.414Z,13.80
2022-08-14T00:10:51.613Z,13.50
2022-08-14T00:11:17.030Z,13.60
2022-08-14T00:11:49.385Z,13.27
2022-08-14T00:12:23.891Z,13.57
2022-08-14T00:12:56.382Z,14.23
2022-08-14T00:13:21.017Z,13.88
2022-08-14T00:13:43.852Z,13.68
2022-08-14T00:14:17.502Z,14.07
2022-08-14T00:14:39.431Z,13.45
2022-08-14T00:15:04.152Z,13.50
2022-08-14T00:15:44.164Z,14.43
2022-08-14T00:16:07.264Z,14.65
2022-08-14T00:16:41.070Z,14.65
2022-08-14T00:17:08.472Z,14.32
2022-08-14T00:17:31.463Z,14.60
2022-08-14T00:18:00.847Z,14.38
2022-08-14T00:18:30.497Z,14.75
2022-08-14T00:19:19.406Z,14.70
2022-08-14T00:19:54.574Z,15.05
2022-08-14T00:20:23.965Z,14.93
2022-08-14T00:20:53.654Z,14.77
2022-08-14T00:21:16.973Z,14.65
2022-08-14T00:21:39.512Z,15.02
2022-08-14T00:22:02.246Z,14.73
2022-08-14T00:22:44.455Z,15.33
2022-08-14T00:23:16.419Z,15.10
2022-08-14T00:23:41.250Z,15.35
2022-08-14T00:24:04.464Z,15.65
2022-08-14T00:24:30.945Z,15.20
2022-08-14T00:24:52.920Z,15.50
2022-08-14T00:25:14.943Z,15.65
2022-08-14T00:25:42.238Z,15.77
2022-08-14T00:26:06.678Z,15.40
2022-08-14T00:26:32.026Z,15.75
2022-08-14T00:26:54.841Z,15.77
2022-08-14T00:27:16.668Z,15.55
2022-08-14T00:27:39.687Z,15.65
2022-08-14T00:28:02.791Z,15.23
2022-08-14T00:28:29.162Z,15.32
2022-08-14T00:28:54.588Z,15.20
2022-08-14T00:29:16.892Z,15.27
2022-08-14T00:29:40.486Z,14.75
2022-08-14T00:30:10.894Z,15.15
2022-08-14T00:30:33.200Z,15.27
2022-08-14T00:30:58.435Z,14.65
2022-08-14T00:31:34.738Z,14.80
2022-08-14T00:31:57.711Z,14.38
2022-08-14T00:32:51.742Z,14.23
2022-08-14T00:33:06.211Z,14.13
2022-08-14T00:33:52.560Z,14.15
2022-08-14T00:34:37.243Z,13.98
2022-08-14T00:35:01.427Z,14.30
2022-08-14T00:36:33.766Z,14.93
2022-08-14T00:36:35.276Z,13.90
2022-08-14T00:36:55.258Z,14.63
2022-08-14T00:37:21.396Z,13.45
2022-08-14T00:37:45.772Z,13.68
2022-08-14T00:38:10.419Z,13.77
2022-08-14T00:38:34.887Z,14.47
2022-08-14T00:38:57.046Z,14.30
2022-08-14T00:39:19.041Z,14.43
2022-08-14T00:39:41.251Z,14.82
2022-08-14T00:40:27.438Z,14.63
2022-08-14T00:40:47.979Z,15.20
2022-08-14T00:41:12.423Z,14.23
2022-08-14T00:41:39.108Z,14.20
2022-08-14T00:42:02.235Z,14.63
2022-08-14T00:42:52.558Z,14.80
2022-08-14T00:43:09.827Z,15.48
2022-08-14T00:43:33.324Z,15.93
2022-08-14T00:43:55.843Z,16.10
2022-08-14T00:44:21.512Z,15.98
2022-08-14T00:44:58.002Z,16.55
2022-08-14T00:45:20.775Z,15.57
2022-08-14T00:45:52.742Z,16.55
2022-08-14T00:46:33.113Z,17.33
2022-08-14T00:46:58.818Z,17.20
2022-08-14T00:47:24.764Z,17.90
2022-08-14T00:47:49.711Z,17.98
2022-08-14T00:48:11.973Z,17.80
2022-08-14T00:48:36.893Z,17.42
2022-08-14T00:49:02.085Z,16.80
2022-08-14T00:49:24.217Z,17.17
2022-08-14T00:49:46.232Z,17.48
2022-08-14T00:50:17.550Z,17.98
2022-08-14T00:50:39.804Z,18.15
2022-08-14T00:51:07.659Z,17.25
2022-08-14T00:51:34.842Z,17.48
2022-08-14T00:52:00.704Z,17.90
2022-08-14T00:52:23.636Z,17.67
2022-08-14T00:52:51.020Z,17.58
2022-08-14T00:53:13.309Z,17.80
2022-08-14T00:53:36.937Z,17.23
2022-08-14T00:54:00.737Z,17.67
2022-08-14T00:54:22.837Z,17.40
2022-08-14T00:54:45.881Z,17.42
2022-08-14T00:55:08.739Z,18.35
2022-08-14T00:55:41.402Z,17.52
2022-08-14T00:56:06.877Z,17.90
2022-08-14T00:56:31.228Z,17.50
2022-08-14T00:56:55.082Z,17.00
2022-08-14T00:57:19.786Z,16.73
2022-08-14T00:57:42.462Z,16.52
2022-08-14T00:58:27.880Z,16.23
2022-08-14T00:58:56.388Z,16.10
2022-08-14T00:59:21.410Z,16.60
2022-08-14T00:59:44.210Z,15.73
2022-08-14T01:00:34.283Z,16.13
2022-08-14T01:00:57.635Z,15.40
2022-08-14T01:01:19.863Z,15.20
2022-08-14T01:01:42.091Z,15.15
2022-08-14T01:02:05.895Z,14.93
2022-08-14T01:02:31.926Z,15.35
2022-08-14T01:02:54.626Z,15.38
2022-08-14T01:03:21.047Z,14.95
2022-08-14T01:03:43.646Z,14.90
2022-08-14T01:04:53.559Z,14.57
2022-08-14T01:05:25.731Z,14.93
2022-08-14T01:06:07.320Z,14.50
2022-08-14T01:06:30.325Z,14.68
2022-08-14T01:06:56.288Z,14.98
2022-08-14T01:07:21.720Z,14.95
2022-08-14T01:07:53.994Z,14.75
2022-08-14T01:08:51.690Z,15.20
2022-08-14T01:09:11.483Z,14.35
2022-08-14T01:09:39.220Z,14.68
2022-08-14T01:10:05.750Z,14.95
2022-08-14T01:10:48.808Z,15.15
2022-08-14T01:11:19.083Z,15.02
2022-08-14T01:11:45.122Z,15.35
2022-08-14T01:12:26.702Z,15.15
2022-08-14T01:12:50.618Z,14.63
2022-08-14T01:13:16.580Z,14.13
2022-08-14T01:13:43.116Z,14.10
2022-08-14T01:14:25.513Z,14.77
2022-08-14T01:14:48.030Z,14.27
2022-08-14T01:15:14.732Z,15.13
2022-08-14T01:15:58.340Z,13.85
2022-08-14T01:16:20.576Z,14.60
2022-08-14T01:16:53.015Z,13.90
2022-08-14T01:17:17.195Z,14.50
2022-08-14T01:18:03.664Z,14.35
2022-08-14T01:18:56.205Z,15.43
2022-08-14T01:19:43.729Z,14.23
2022-08-14T01:20:27.754Z,15.27
2022-08-14T01:21:04.770Z,14.55
2022-08-14T01:21:47.355Z,14.77
2022-08-14T01:22:18.895Z,14.65
2022-08-14T01:22:41.055Z,14.77
2022-08-14T01:23:10.357Z,15.25
2022-08-14T01:23:47.036Z,14.90
2022-08-14T01:24:11.009Z,14.40
2022-08-14T01:24:34.425Z,13.93
2022-08-14T01:24:57.979Z,15.00
2022-08-14T01:25:20.376Z,15.07
2022-08-14T01:25:44.310Z,15.00
2022-08-14T01:26:11.693Z,14.48
2022-08-14T01:26:39.255Z,13.75
2022-08-14T01:27:01.365Z,14.20
2022-08-14T01:27:25.039Z,14.52
2022-08-14T01:27:53.518Z,15.30
2022-08-14T01:28:47.046Z,15.05
2022-08-14T01:29:06.277Z,14.80
2022-08-14T01:30:03.708Z,14.70
2022-08-14T01:30:22.251Z,15.15
2022-08-14T01:30:44.726Z,15.05
2022-08-14T01:31:14.156Z,15.15
2022-08-14T01:31:56.408Z,15.20
2022-08-14T01:32:22.927Z,14.85
2022-08-14T01:33:05.602Z,15.07
2022-08-14T01:33:30.521Z,14.82
2022-08-14T01:35:19.618Z,15.27
2022-08-14T01:35:20.562Z,15.38
2022-08-14T01:36:04.624Z,15.13
2022-08-14T01:36:24.559Z,14.93
2022-08-14T01:36:47.453Z,15.25
2022-08-14T01:37:11.849Z,14.73
2022-08-14T01:37:38.597Z,15.18
2022-08-14T01:38:06.931Z,15.00
2022-08-14T01:38:37.332Z,15.00
2022-08-14T01:38:59.343Z,14.93
2022-08-14T01:39:21.392Z,15.02
2022-08-14T01:39:44.811Z,15.55
2022-08-14T01:40:07.482Z,15.15
2022-08-14T01:40:40.956Z,14.85
2022-08-14T01:41:12.042Z,15.75
2022-08-14T01:41:37.834Z,14.80
2022-08-14T01:42:01.803Z,15.43
2022-08-14T01:42:31.365Z,15.00
2022-08-14T01:42:57.702Z,14.90
2022-08-14T01:43:21.920Z,15.07
2022-08-14T01:43:56.534Z,15.15
2022-08-14T01:44:33.185Z,15.75
2022-08-14T01:44:57.712Z,15.73
2022-08-14T01:45:25.511Z,15.02
2022-08-14T01:45:57.818Z,14.68
2022-08-14T01:46:33.426Z,15.43
2022-08-14T01:47:01.830Z,15.32
2022-08-14T01:47:37.079Z,15.75
2022-08-14T01:48:03.472Z,15.32
2022-08-14T01:48:25.795Z,15.57
2022-08-14T01:48:48.788Z,15.02
2022-08-14T01:49:15.306Z,15.52
2022-08-14T01:49:45.798Z,15.55
2022-08-14T01:50:10.102Z,16.27
2022-08-14T01:50:33.853Z,15.25
2022-08-14T01:50:56.496Z,16.38
2022-08-14T01:51:27.827Z,16.35
2022-08-14T01:51:56.814Z,15.88
2022-08-14T01:52:34.712Z,17.02
2022-08-14T01:53:04.728Z,15.88
2022-08-14T01:53:32.735Z,15.73
2022-08-14T01:54:05.711Z,16.58
2022-08-14T01:54:37.971Z,16.63
2022-08-14T01:55:01.576Z,17.25
2022-08-14T01:55:30.560Z,16.73
2022-08-14T01:55:54.868Z,16.90
2022-08-14T01:56:18.832Z,16.92
2022-08-14T01:56:42.914Z,16.80
2022-08-14T01:57:11.575Z,16.45
2022-08-14T01:58:00.553Z,16.60
2022-08-14T01:58:28.980Z,16.70
2022-08-14T01:58:58.099Z,16.05
2022-08-14T01:59:22.529Z,16.50
2022-08-14T01:59:44.917Z,16.75
2022-08-14T02:00:18.161Z,16.42
2022-08-14T02:00:40.168Z,17.02
2022-08-14T02:01:06.480Z,16.60
2022-08-14T02:01:30.937Z,16.65
2022-08-14T02:01:58.677Z,17.02
2022-08-14T02:02:23.336Z,15.88
2022-08-14T02:02:46.594Z,16.02
2022-08-14T02:03:08.720Z,16.27
2022-08-14T02:03:32.374Z,16.77
2022-08-14T02:03:57.424Z,15.80
2022-08-14T02:04:40.601Z,16.00
2022-08-14T02:05:02.967Z,16.05
2022-08-14T02:05:34.970Z,15.88
2022-08-14T02:06:04.314Z,17.05
2022-08-14T02:06:44.579Z,16.20
2022-08-14T02:07:15.669Z,16.88
2022-08-14T02:07:53.645Z,17.08
2022-08-14T02:08:22.519Z,16.50
2022-08-14T02:08:57.186Z,16.42
2022-08-14T02:09:22.568Z,16.33
2022-08-14T02:09:44.555Z,16.27
2022-08-14T02:10:18.009Z,15.65
2022-08-14T02:10:46.393Z,15.45
2022-08-14T02:11:20.241Z,16.20
2022-08-14T02:11:42.183Z,17.17
2022-08-14T02:12:06.172Z,17.02
2022-08-14T02:12:31.003Z,16.67
2022-08-14T02:12:56.817Z,17.05
2022-08-14T02:13:20.439Z,17.17
2022-08-14T02:13:47.831Z,17.45
2022-08-14T02:14:14.097Z,16.48
2022-08-14T02:14:37.750Z,16.95
2022-08-14T02:15:01.573Z,17.30
2022-08-14T02:15:24.807Z,16.95
2022-08-14T02:15:48.580Z,17.40
2022-08-14T02:16:22.057Z,17.77
2022-08-14T02:16:53.364Z,16.75
2022-08-14T02:17:17.325Z,17.35
2022-08-14T02:17:39.740Z,17.45
2022-08-14T02:18:04.284Z,17.63
2022-08-14T02:18:27.859Z,17.50
2022-08-14T02:18:59.784Z,17.65
2022-08-14T02:19:27.255Z,18.02
2022-08-14T02:19:49.355Z,17.13
2022-08-14T02:20:14.037Z,17.42
2022-08-14T02:20:36.419Z,17.23
2022-08-14T02:20:59.206Z,17.67
2022-08-14T02:21:23.147Z,17.25
2022-08-14T02:21:50.445Z,17.00
2022-08-14T02:22:12.925Z,17.45
2022-08-14T02:22:47.718Z,18.33
2022-08-14T02:23:11.446Z,17.58
2022-08-14T02:23:36.334Z,17.50
2022-08-14T02:23:59.523Z,17.30
2022-08-14T02:24:39.796Z,16.98
2022-08-14T02:25:03.609Z,18.02
2022-08-14T02:25:29.995Z,18.38
2022-08-14T02:25:54.753Z,17.25
2022-08-14T02:26:29.041Z,17.13
2022-08-14T02:28:19.228Z,17.63
2022-08-14T02:28:23.366Z,17.33
2022-08-14T02:28:25.655Z,17.38
2022-08-14T02:29:07.376Z,17.33
2022-08-14T02:29:59.510Z,17.02
2022-08-14T02:30:15.331Z,16.70
2022-08-14T02:30:39.283Z,16.80
2022-08-14T02:31:01.767Z,17.52
2022-08-14T02:31:23.551Z,17.55
2022-08-14T02:32:00.908Z,17.35
2022-08-14T02:32:30.482Z,17.45
2022-08-14T02:32:58.821Z,16.85
2022-08-14T02:33:21.524Z,16.75
2022-08-14T02:33:44.136Z,17.10
2022-08-14T02:34:19.880Z,16.73
2022-08-14T02:34:44.501Z,17.55
2022-08-14T02:35:18.891Z,16.38
2022-08-14T02:35:43.300Z,17.13
2022-08-14T02:37:04.369Z,16.80
2022-08-14T02:37:04.653Z,16.63
2022-08-14T02:37:29.379Z,16.98
2022-08-14T02:38:11.719Z,16.35
2022-08-14T02:38:49.946Z,16.52
2022-08-14T02:39:14.078Z,16.58
2022-08-14T02:39:40.252Z,17.10
2022-08-14T02:40:05.428Z,17.58
2022-08-14T02:40:32.562Z,17.13
2022-08-14T02:40:57.468Z,17.10
2022-08-14T02:41:19.365Z,17.65
2022-08-14T02:41:52.668Z,17.30
2022-08-14T02:42:23.377Z,16.60
2022-08-14T02:42:54.923Z,17.15
2022-08-14T02:43:22.765Z,16.77
2022-08-14T02:43:46.306Z,17.25
2022-08-14T02:44:12.188Z,17.20
2022-08-14T02:44:39.502Z,16.50
2022-08-14T02:45:03.302Z,17.20
2022-08-14T02:45:38.191Z,15.68
2022-08-14T02:46:12.546Z,16.65
2022-08-14T02:46:35.659Z,16.15
2022-08-14T02:47:03.242Z,16.67
2022-08-14T02:47:29.056Z,17.33
2022-08-14T02:47:57.248Z,16.83
2022-08-14T02:49:03.243Z,17.10
2022-08-14T02:49:06.378Z,17.40
2022-08-14T02:49:34.250Z,17.35
2022-08-14T02:49:57.198Z,17.17
2022-08-14T02:50:21.304Z,17.58
2022-08-14T02:50:51.547Z,15.52
2022-08-14T02:51:16.141Z,16.42
2022-08-14T02:51:41.269Z,17.15
2022-08-14T02:52:56.694Z,16.45
2022-08-14T02:52:56.856Z,16.60
2022-08-14T02:53:19.772Z,16.20
2022-08-14T02:53:45.315Z,16.65
2022-08-14T02:54:10.181Z,16.95
2022-08-14T02:54:36.084Z,16.30
2022-08-14T02:54:58.827Z,16.27
2022-08-14T02:55:21.322Z,17.67
2022-08-14T02:55:44.047Z,16.60
2022-08-14T02:56:10.261Z,16.67
2022-08-14T02:57:15.530Z,17.00
2022-08-14T02:57:40.245Z,16.77
2022-08-14T02:58:05.788Z,17.50
2022-08-14T02:58:30.573Z,16.50
2022-08-14T02:58:55.661Z,16.60
2022-08-14T02:59:19.022Z,17.58
2022-08-14T02:59:43.424Z,17.42
2022-08-14T03:00:06.649Z,17.15
2022-08-14T03:00:35.272Z,17.02
2022-08-14T03:00:58.773Z,16.38
2022-08-14T03:01:31.097Z,17.35
2022-08-14T03:02:05.537Z,17.38
2022-08-14T03:02:56.399Z,17.70
2022-08-14T03:03:17.339Z,17.80
2022-08-14T03:03:39.339Z,17.08
2022-08-14T03:04:01.653Z,17.23
2022-08-14T03:04:26.551Z,16.70
2022-08-14T03:04:48.361Z,18.15
2022-08-14T03:05:12.308Z,18.08
2022-08-14T03:05:36.139Z,18.33
2022-08-14T03:06:00.366Z,18.00
2022-08-14T03:06:35.201Z,18.27
2022-08-14T03:07:09.584Z,16.33
2022-08-14T03:07:55.639Z,18.08
2022-08-14T03:08:17.133Z,18.98
2022-08-14T03:08:45.883Z,19.35
2022-08-14T03:09:08.135Z,19.42
2022-08-14T03:09:42.048Z,19.65
2022-08-14T03:10:25.348Z,18.40
2022-08-14T03:10:51.448Z,18.08
2022-08-14T03:11:13.704Z,18.70
2022-08-14T03:11:36.156Z,18.15
2022-08-14T03:11:58.061Z,18.65
2022-08-14T03:12:31.907Z,18.83
2022-08-14T03:12:54.732Z,18.90
2022-08-14T03:13:19.507Z,19.05
2022-08-14T03:13:45.857Z,18.10
2022-08-14T03:14:09.913Z,18.88
2022-08-14T03:14:35.899Z,18.63
2022-08-14T03:14:58.523Z,19.45
2022-08-14T03:15:20.989Z,18.67
2022-08-14T03:15:55.707Z,18.88
2022-08-14T03:16:26.808Z,19.05
2022-08-14T03:16:49.520Z,19.95
2022-08-14T03:17:14.163Z,19.48
2022-08-14T03:17:41.130Z,19.70
2022-08-14T03:18:18.674Z,19.20
2022-08-14T03:18:45.059Z,19.48
2022-08-14T03:19:08.897Z,19.50
2022-08-14T03:19:33.856Z,19.92
2022-08-14T03:19:55.818Z,19.25
2022-08-14T03:20:17.793Z,19.30
2022-08-14T03:20:44.116Z,20.30
2022-08-14T03:21:13.248Z,19.15
2022-08-14T03:21:38.035Z,20.20
2022-08-14T03:22:06.014Z,20.23
2022-08-14T03:22:31.704Z,19.27
2022-08-14T03:22:58.692Z,19.58
2022-08-14T03:23:22.161Z,20.50
2022-08-14T03:23:45.998Z,20.33
2022-08-14T03:24:21.497Z,19.73
2022-08-14T03:24:45.002Z,19.95
2022-08-14T03:25:07.443Z,19.67
2022-08-14T03:25:34.072Z,20.02
2022-08-14T03:25:59.138Z,19.70
2022-08-14T03:26:30.197Z,20.05
2022-08-14T03:26:56.119Z,19.33
2022-08-14T03:27:19.743Z,18.77
2022-08-14T03:27:48.635Z,20.10
2022-08-14T03:28:29.598Z,19.38
2022-08-14T03:28:55.573Z,19.48
2022-08-14T03:29:26.144Z,19.05
2022-08-14T03:29:48.619Z,19.93
2022-08-14T03:30:14.471Z,19.52
2022-08-14T03:30:41.002Z,19.25
2022-08-14T03:31:02.931Z,19.05
2022-08-14T03:31:25.992Z,18.98
2022-08-14T03:31:52.148Z,19.35
2022-08-14T03:32:14.247Z,19.05
2022-08-14T03:32:36.512Z,19.10
2022-08-14T03:32:59.077Z,19.02
2022-08-14T03:33:21.622Z,18.33
2022-08-14T03:33:44.238Z,19.45
2022-08-14T03:34:10.328Z,19.05
2022-08-14T03:34:48.452Z,19.75
2022-08-14T03:35:18.128Z,19.58
2022-08-14T03:36:07.603Z,19.13
2022-08-14T03:37:50.734Z,19.52
2022-08-14T03:37:51.891Z,20.23
2022-08-14T03:39:10.719Z,19.73
2022-08-14T03:39:15.410Z,19.92
2022-08-14T03:39:22.143Z,20.70
2022-08-14T03:39:46.191Z,20.38
2022-08-14T03:40:18.594Z,20.83
2022-08-14T03:40:43.064Z,20.92
2022-08-14T03:41:07.827Z,20.13
2022-08-14T03:41:33.120Z,20.17
2022-08-14T03:41:59.994Z,19.67
2022-08-14T03:42:25.133Z,20.70
2022-08-14T03:42:53.118Z,20.40
2022-08-14T03:43:14.959Z,20.80
2022-08-14T03:43:38.614Z,20.48
2022-08-14T03:45:19.032Z,19.67
2022-08-14T03:45:20.078Z,20.65
2022-08-14T03:45:35.176Z,20.10
2022-08-14T03:45:57.900Z,19.88
2022-08-14T03:46:39.161Z,19.60
2022-08-14T03:47:04.258Z,20.10
2022-08-14T03:47:46.125Z,21.20
2022-08-14T03:48:31.131Z,20.10
2022-08-14T03:48:54.716Z,20.80
2022-08-14T03:49:24.493Z,20.02
2022-08-14T03:49:50.767Z,20.57
2022-08-14T03:50:14.042Z,20.88
2022-08-14T03:50:54.048Z,19.95
2022-08-14T03:51:18.195Z,20.50
2022-08-14T03:51:40.382Z,20.00
2022-08-14T03:52:17.709Z,19.60
2022-08-14T03:52:57.471Z,20.38
2022-08-14T03:53:22.417Z,20.70
2022-08-14T03:53:46.356Z,19.75
2022-08-14T03:54:08.907Z,18.80
2022-08-14T03:54:38.261Z,20.50
2022-08-14T03:55:03.968Z,20.88
2022-08-14T03:55:25.792Z,20.35
2022-08-14T03:55:47.786Z,19.98
2022-08-14T03:56:21.212Z,20.55
2022-08-14T03:56:45.224Z,20.92
2022-08-14T03:57:12.062Z,20.58
2022-08-14T03:57:37.188Z,20.83
2022-08-14T03:58:00.253Z,19.75
2022-08-14T03:58:23.602Z,19.42
2022-08-14T03:58:59.578Z,20.63
2022-08-14T03:59:21.962Z,19.98
2022-08-14T03:59:43.780Z,19.73
2022-08-14T04:00:40.213Z,20.88
2022-08-14T04:00:55.080Z,20.73
2022-08-14T04:01:19.760Z,20.85
2022-08-14T04:01:45.866Z,20.00
2022-08-14T04:02:32.360Z,19.38
2022-08-14T04:02:55.561Z,19.90
2022-08-14T04:03:24.068Z,20.02
2022-08-14T04:03:47.970Z,19.98
2022-08-14T04:04:10.470Z,21.25
2022-08-14T04:04:33.572Z,21.10
2022-08-14T04:04:55.928Z,19.70
2022-08-14T04:05:42.661Z,21.45
2022-08-14T04:06:08.741Z,19.90
2022-08-14T04:06:42.588Z,20.63
2022-08-14T04:07:10.772Z,19.80
2022-08-14T04:07:35.961Z,21.52
2022-08-14T04:08:08.345Z,20.75
2022-08-14T04:08:41.911Z,20.13
2022-08-14T04:09:09.753Z,19.98
2022-08-14T04:09:31.611Z,19.98
2022-08-14T04:09:53.682Z,20.60
2022-08-14T04:10:17.251Z,20.10
2022-08-14T04:10:39.698Z,20.48
2022-08-14T04:11:02.875Z,19.90
2022-08-14T04:11:29.786Z,20.35
2022-08-14T04:11:51.607Z,20.20
2022-08-14T04:12:13.757Z,20.23
2022-08-14T04:12:36.498Z,20.25
2022-08-14T04:13:03.244Z,20.02
2022-08-14T04:13:27.792Z,19.30
2022-08-14T04:13:50.075Z,21.20
2022-08-14T04:14:16.461Z,20.85
2022-08-14T04:14:38.479Z,19.40
2022-08-14T04:15:05.888Z,20.40
2022-08-14T04:15:29.232Z,20.65
2022-08-14T04:16:01.058Z,19.83
2022-08-14T04:16:24.776Z,20.15
2022-08-14T04:16:53.534Z,20.60
2022-08-14T04:17:15.527Z,19.98
2022-08-14T04:17:38.890Z,19.73
2022-08-14T04:18:11.872Z,20.30
2022-08-14T04:18:34.559Z,20.63
2022-08-14T04:18:58.435Z,19.50
2022-08-14T04:19:24.030Z,20.05
2022-08-14T04:19:47.499Z,19.15
2022-08-14T04:20:10.609Z,19.88
2022-08-14T04:20:51.548Z,19.70
2022-08-14T04:21:18.008Z,19.17
2022-08-14T04:22:02.213Z,19.85
2022-08-14T04:22:22.157Z,19.15
2022-08-14T04:22:48.319Z,18.95
2022-08-14T04:23:18.426Z,18.38
2022-08-14T04:23:49.036Z,19.10
2022-08-14T04:24:13.976Z,18.88
2022-08-14T04:24:39.369Z,19.23
2022-08-14T04:25:05.050Z,19.15
2022-08-14T04:25:27.736Z,18.70
2022-08-14T04:25:53.245Z,18.67
2022-08-14T04:26:27.286Z,18.63
2022-08-14T04:27:00.938Z,18.02
2022-08-14T04:27:23.835Z,18.50
2022-08-14T04:28:01.620Z,18.60
2022-08-14T04:29:07.604Z,18.30
2022-08-14T04:29:15.591Z,18.17
2022-08-14T04:29:44.843Z,18.88
2022-08-14T04:30:07.728Z,18.13
2022-08-14T04:30:33.033Z,18.52
2022-08-14T04:30:54.999Z,17.77
2022-08-14T04:31:25.084Z,18.73
2022-08-14T04:33:02.520Z,17.85
2022-08-14T04:33:10.698Z,17.77
2022-08-14T04:33:26.842Z,17.10
2022-08-14T04:33:52.810Z,16.17
2022-08-14T04:34:20.759Z,17.73
2022-08-14T04:34:52.242Z,17.45
2022-08-14T04:35:14.395Z,17.95
2022-08-14T04:35:56.736Z,17.40
2022-08-14T04:36:19.981Z,17.20
2022-08-14T04:37:04.951Z,16.92
2022-08-14T04:37:53.610Z,16.25
2022-08-14T04:38:36.649Z,17.20
2022-08-14T04:39:18.920Z,16.88
2022-08-14T04:39:59.422Z,17.60
2022-08-14T04:40:55.514Z,17.80
2022-08-14T04:41:53.293Z,18.23
2022-08-14T04:42:34.166Z,17.17
2022-08-14T04:43:17.340Z,17.08
2022-08-14T04:43:42.465Z,17.63
2022-08-14T04:44:05.601Z,17.45
2022-08-14T04:44:36.679Z,17.42
2022-08-14T04:45:00.673Z,17.05
2022-08-14T04:45:25.006Z,17.42
2022-08-14T04:45:51.394Z,17.17
2022-08-14T04:46:56.850Z,17.02
2022-08-14T04:47:36.975Z,16.73
2022-08-14T04:48:39.606Z,16.95
2022-08-14T04:49:00.055Z,17.90
2022-08-14T04:49:22.540Z,18.88
2022-08-14T04:49:56.851Z,18.77
2022-08-14T04:50:31.326Z,18.27
2022-08-14T04:51:00.432Z,17.95
2022-08-14T04:51:27.773Z,18.40
2022-08-14T04:51:55.841Z,20.10
2022-08-14T04:52:19.083Z,20.35
2022-08-14T04:52:45.479Z,20.98
2022-08-14T04:53:23.243Z,21.00
2022-08-14T04:53:49.447Z,20.20
2022-08-14T04:54:11.286Z,20.42
2022-08-14T04:54:35.229Z,19.58
2022-08-14T04:54:57.820Z,19.27
2022-08-14T04:55:20.532Z,20.08
2022-08-14T04:55:51.455Z,20.85
2022-08-14T04:56:31.444Z,20.38
2022-08-14T04:56:57.056Z,20.17
2022-08-14T04:57:19.530Z,20.73
2022-08-14T04:57:42.433Z,20.45
2022-08-14T04:58:06.626Z,20.75
2022-08-14T04:58:32.554Z,21.20
2022-08-14T04:59:02.032Z,21.00
2022-08-14T04:59:25.660Z,21.65
2022-08-14T04:59:49.289Z,21.42
2022-08-14T05:00:16.296Z,20.27
2022-08-14T05:00:45.441Z,20.73
2022-08-14T05:01:17.876Z,20.65
2022-08-14T05:01:48.742Z,21.25
2022-08-14T05:02:11.809Z,20.20
2022-08-14T05:02:34.669Z,20.45
2022-08-14T05:02:58.501Z,20.67
2022-08-14T05:03:25.639Z,19.85
2022-08-14T05:03:50.604Z,18.75
2022-08-14T05:04:15.989Z,19.63
2022-08-14T05:04:39.909Z,20.33
2022-08-14T05:05:08.871Z,20.75
2022-08-14T05:05:32.737Z,20.13
2022-08-14T05:05:58.412Z,20.58
2022-08-14T05:06:37.263Z,20.15
2022-08-14T05:07:00.730Z,19.15
2022-08-14T05:07:46.588Z,18.52
2022-08-14T05:08:32.169Z,19.77
2022-08-14T05:08:57.196Z,19.95
2022-08-14T05:09:23.371Z,20.20
2022-08-14T05:09:47.938Z,19.73
2022-08-14T05:10:16.402Z,19.75
2022-08-14T05:10:52.105Z,19.52
2022-08-14T05:11:15.782Z,20.05
2022-08-14T05:11:37.823Z,20.02
2022-08-14T05:13:11.119Z,19.67
2022-08-14T05:13:12.678Z,18.90
2022-08-14T05:13:30.146Z,19.30
2022-08-14T05:14:17.034Z,19.08
2022-08-14T05:14:46.882Z,19.05
2022-08-14T05:15:17.289Z,19.57
2022-08-14T05:15:42.075Z,18.73
2022-08-14T05:16:05.841Z,19.00
2022-08-14T05:16:31.009Z,18.73
2022-08-14T05:16:53.661Z,18.80
2022-08-14T05:17:15.887Z,18.85
2022-08-14T05:17:44.109Z,18.73
2022-08-14T05:18:52.942Z,19.23
2022-08-14T05:19:25.304Z,19.30
2022-08-14T05:21:04.013Z,18.92
2022-08-14T05:21:04.214Z,18.00
2022-08-14T05:21:56.279Z,18.63
2022-08-14T05:21:59.715Z,19.42
2022-08-14T05:22:23.393Z,19.25
2022-08-14T05:22:52.043Z,19.88
2022-08-14T05:23:20.779Z,19.83
2022-08-14T05:23:45.461Z,18.83
2022-08-14T05:24:17.487Z,17.95
2022-08-14T05:24:40.685Z,19.63
2022-08-14T05:25:04.197Z,19.52
2022-08-14T05:25:30.718Z,19.53
2022-08-14T05:25:55.537Z,20.75
2022-08-14T05:26:18.183Z,21.10
2022-08-14T05:26:41.502Z,20.83
2022-08-14T05:27:04.434Z,21.17
2022-08-14T05:27:26.302Z,21.90
2022-08-14T05:27:57.416Z,21.63
2022-08-14T05:28:25.703Z,20.67
2022-08-14T05:28:49.445Z,20.63
2022-08-14T05:29:13.546Z,21.42
2022-08-14T05:29:36.131Z,20.70
2022-08-14T05:29:58.145Z,21.45
2022-08-14T05:30:20.317Z,20.98
2022-08-14T05:30:43.757Z,20.83
2022-08-14T05:31:08.061Z,21.50
2022-08-14T05:31:40.277Z,20.83
2022-08-14T05:32:07.405Z,20.48
2022-08-14T05:32:29.267Z,20.85
2022-08-14T05:32:51.109Z,21.17
2022-08-14T05:33:15.567Z,20.92
2022-08-14T05:33:37.595Z,20.95
2022-08-14T05:34:00.421Z,21.25
2022-08-14T05:34:28.862Z,20.63
2022-08-14T05:34:53.274Z,20.90
2022-08-14T05:35:15.861Z,21.55
2022-08-14T05:35:37.870Z,22.13
2022-08-14T05:36:17.038Z,22.52
2022-08-14T05:36:39.454Z,21.83
2022-08-14T05:37:03.201Z,21.25
2022-08-14T05:37:27.235Z,21.35
2022-08-14T05:37:50.217Z,20.63
2022-08-14T05:38:31.315Z,22.00
2022-08-14T05:38:53.993Z,20.55
2022-08-14T05:39:17.247Z,20.25
2022-08-14T05:39:41.203Z,21.05
2022-08-14T05:40:03.499Z,21.60
2022-08-14T05:40:25.814Z,21.08
2022-08-14T05:40:49.553Z,21.98
2022-08-14T05:41:17.957Z,22.15
2022-08-14T05:41:53.536Z,21.75
2022-08-14T05:42:21.976Z,21.17
2022-08-14T05:42:52.642Z,20.95
2022-08-14T05:43:15.740Z,20.80
2022-08-14T05:43:41.314Z,21.17
2022-08-14T05:44:03.951Z,21.38
2022-08-14T05:44:30.222Z,21.45
2022-08-14T05:44:54.137Z,22.13
2022-08-14T05:45:17.515Z,21.95
2022-08-14T05:45:40.744Z,21.58
2022-08-14T05:46:02.909Z,21.40
2022-08-14T05:46:28.245Z,21.90
2022-08-14T05:46:50.615Z,21.00
2022-08-14T05:47:14.826Z,21.67
2022-08-14T05:47:41.771Z,20.85
2022-08-14T05:48:06.313Z,21.20
2022-08-14T05:48:33.559Z,21.77
2022-08-14T05:48:58.745Z,21.45
2022-08-14T05:49:20.669Z,22.17
2022-08-14T05:49:42.565Z,21.73
2022-08-14T05:50:04.604Z,21.20
2022-08-14T05:50:27.256Z,21.00
2022-08-14T05:50:55.006Z,20.15
2022-08-14T05:51:17.362Z,20.88
2022-08-14T05:51:39.686Z,21.52
2022-08-14T05:52:02.672Z,20.85
2022-08-14T05:52:38.572Z,20.65
2022-08-14T05:53:06.478Z,21.40
2022-08-14T05:53:29.472Z,21.52
2022-08-14T05:53:57.221Z,20.67
2022-08-14T05:54:27.040Z,20.35
2022-08-14T05:54:49.390Z,20.88
2022-08-14T05:55:12.042Z,21.13
2022-08-14T05:55:34.281Z,21.58
2022-08-14T05:56:04.989Z,21.73
2022-08-14T05:56:29.001Z,20.75
2022-08-14T05:56:50.947Z,20.90
2022-08-14T05:57:13.555Z,21.73
2022-08-14T05:57:45.995Z,21.67
2022-08-14T05:58:08.945Z,20.48
2022-08-14T05:58:40.995Z,20.65
2022-08-14T05:59:03.636Z,20.10
2022-08-14T05:59:36.486Z,20.85
2022-08-14T06:00:01.329Z,21.48
2022-08-14T06:00:29.346Z,21.77
2022-08-14T06:00:55.507Z,20.65
2022-08-14T06:01:17.308Z,21.15
2022-08-14T06:01:39.223Z,21.33
2022-08-14T06:02:03.325Z,20.80
2022-08-14T06:02:27.695Z,21.00
2022-08-14T06:02:51.306Z,20.85
2022-08-14T06:03:16.881Z,20.98
2022-08-14T06:03:40.222Z,21.92
2022-08-14T06:04:04.637Z,21.70
2022-08-14T06:04:27.273Z,21.10
2022-08-14T06:04:50.397Z,21.20
2022-08-14T06:05:12.566Z,21.65
2022-08-14T06:05:37.762Z,20.95
2022-08-14T06:06:01.007Z,21.27
2022-08-14T06:06:23.518Z,21.02
2022-08-14T06:06:47.950Z,21.00